Latest Coastal Weather Observations for Gove Airport

IDD60701

Issued at 2:31 pm CST Sunday 26 April 2015 (issued every 10 minutes, with the page automatically refreshed every 10 minutes)

About coastal observations | Map of coastal stations | Coastal observations for NT | Marine services | Other Formats
Station Details ID: 014508 Name: GOVE AIRPORT Lat: -12.27 Lon: 136.82 Height: 51.6 m
Data from the previous 72 hours. | See also: Recent months at Gove Airport
Date/Time
CST
Temp

°C
Wind Pressure Rain
since 9am
mm
Weather Cloud Vis
km
Sea
Height
m
Swell
Dir
 
Speed
knots
Gust
knots
hPa Trend Height
m
Period
s
Dir
26/02:00pm 29.0 SE 13 19 1011.7 - 0.0 Showers Mostly cloudy 10 - - - -
26/01:30pm 29.7 SE 16 22 1011.8 - 0.0 - Partly cloudy 10 - - - -
26/01:00pm 29.2 SE 13 21 1012.0 - 0.0 - Partly cloudy 10 - - - -
26/12:30pm 29.1 SSE 14 21 1012.2 - 0.0 - Partly cloudy 10 - - - -
26/12:00pm 29.4 SE 16 21 1012.2 R 0.0 Haze Partly cloudy 18 - - - -
26/11:30am 30.4 SE 13 19 1012.8 - 0.0 - Partly cloudy 10 - - - -
26/11:00am 29.8 SE 16 21 1012.9 - 0.0 - Partly cloudy 10 - - - -
26/10:30am 30.5 SE 18 23 1013.1 - 0.0 - Mostly clear 10 - - - -
26/10:00am 30.2 SE 14 19 1013.1 - 0.0 - Partly cloudy 10 - - - -
26/09:30am 30.0 SE 14 18 1013.0 - 0.0 - Mostly clear 10 - - - -
26/08:30am 29.1 SE 12 16 1012.4 - 0.0 - Mostly clear 10 - - - -
26/07:00am 23.4 SE 6 7 1011.8 - 0.0 - - 10 - - - -
26/06:30am 22.6 SE 6 7 1011.5 - 0.0 - - 10 - - - -
26/06:00am 21.8 SE 6 7 1011.0 S 0.0 Fine Mostly clear 25 - - - -
26/05:30am 20.9 SE 5 7 1011.4 - 0.0 - - 10 - - - -
26/05:00am 20.8 SE 5 6 1011.2 - 0.0 - - 10 - - - -
26/04:30am 21.0 SE 4 5 1011.3 - 0.0 - - 10 - - - -
26/04:00am 21.4 SE 5 5 1011.2 - 0.0 - - 10 - - - -
26/03:30am 21.5 ESE 3 4 1011.1 - 0.0 - - 10 - - - -
26/03:00am 23.1 ESE 4 5 1010.6 - 0.0 - - 10 - - - -
26/02:30am 24.0 SE 5 7 1011.1 - 0.0 - - 10 - - - -
26/02:00am 24.5 SE 6 8 1011.2 - 0.0 - - 10 - - - -
26/01:30am 24.8 ESE 7 8 1011.5 - 0.0 - - 10 - - - -
26/01:00am 25.5 SE 8 11 1011.8 - 0.0 - - 10 - - - -
26/12:30am 26.0 SE 9 12 1012.0 - 0.0 - - 10 - - - -
26/12:00am 25.9 SE 8 11 1011.8 - 0.0 - - 10 - - - -
 
Date/Time
CST
Temp

°C
Wind Pressure Rain
since 9am
mm
Weather Cloud Vis
km
Sea
Height
m
Swell
Dir
 
Speed
knots
Gust
knots
hPa Trend Height
m
Period
s
Dir
25/11:30pm 26.1 SE 8 11 1012.5 - 0.0 - - 10 - - - -
25/11:00pm 26.7 SE 10 13 1012.5 - 0.0 - Partly cloudy 10 - - - -
25/10:30pm 26.6 SE 8 11 1012.5 - 0.0 - Partly cloudy 10 - - - -
25/10:00pm 26.4 SE 8 10 1012.5 - 0.0 - Mostly clear 10 - - - -
25/09:30pm 26.4 SE 8 11 1012.5 - 0.0 - Mostly clear 10 - - - -
25/09:00pm 26.5 SSE 8 11 1012.1 R 0.0 Fine Mostly clear 26 - - - -
25/08:30pm 25.6 SSE 6 8 1012.4 - 0.0 - Mostly clear 10 - - - -
25/08:00pm 25.3 SSE 6 6 1011.9 - 0.0 - Mostly clear 10 - - - -
25/07:30pm 25.4 SSE 6 7 1011.5 - 0.0 - Mostly clear 10 - - - -
25/07:00pm 26.0 SSE 6 7 1011.2 - 0.0 - Mostly clear 10 - - - -
25/06:30pm 26.5 SSE 5 7 1011.1 - 0.0 - Mostly clear 10 - - - -
25/06:00pm 27.3 SSE 7 9 1010.3 R 0.0 Fine Mostly clear 26 - - - -
25/05:30pm 28.1 SSE 9 13 1010.3 - 0.0 - Mostly clear 10 - - - -
25/05:00pm 28.7 SSE 9 15 1010.1 - 0.0 - Partly cloudy 10 - - - -
25/04:30pm 29.3 SSE 11 17 1010.0 - 0.0 - Partly cloudy 10 - - - -
25/04:00pm 29.4 SSE 12 17 1009.4 - 0.0 - Partly cloudy 10 - - - -
25/03:30pm 29.8 SSE 11 18 1009.4 - 0.0 - Mostly clear 10 - - - -
25/03:00pm 30.2 SSE 13 20 1008.9 R 0.0 Fine Partly cloudy 26 - - - -
25/02:30pm 30.1 SSE 14 19 1009.4 - 0.0 - Mostly clear 10 - - - -
25/02:00pm 30.4 SE 14 19 1009.6 - 0.0 - Mostly clear 10 - - - -
25/01:30pm 30.6 SSE 13 18 1010.1 - 0.0 - Partly cloudy 10 - - - -
25/01:00pm 30.4 SE 13 18 1010.4 - 0.0 - Partly cloudy 10 - - - -
25/12:30pm 30.1 SE 14 20 1010.5 - 0.0 - Partly cloudy 10 - - - -
25/12:00pm 30.4 SSE 14 19 1010.4 S 0.0 Fine Partly cloudy 26 - - - -
25/11:30am 30.2 SE 13 17 1011.4 - 0.0 - - 10 - - - -
25/11:00am 29.9 SE 15 22 1011.7 - 0.0 - - 10 - - - -
25/10:30am 30.0 SE 11 17 1011.9 - 0.0 - - 10 - - - -
25/10:00am 29.6 ESE 14 20 1012.0 - 0.0 - - 10 - - - -
25/09:30am 29.1 SE 11 14 1011.7 - 0.0 - - 10 - - - -
25/09:00am 28.0 SSE 6 8 1011.3 F 0.0 Fine Partly cloudy 25 - - - -
25/08:30am 25.9 ENE 4 6 1011.6 - 0.0 - - 10 - - - -
25/08:00am 23.5 WNW 3 4 1011.2 - 0.0 - - 10 - - - -
25/07:30am 19.9 S 1 4 1011.1 - 0.0 - - 10 - - - -
25/07:00am 18.7 CALM 0 0 1011.0 - 0.0 - - 10 - - - -
25/06:30am 18.0 CALM 0 0 1010.6 - 0.0 - - 10 - - - -
25/06:00am 18.0 CALM 0 0 1010.0 F 0.0 Fine Mostly clear 26 - - - -
25/05:30am 18.1 CALM 0 0 1010.3 - 0.0 - - 10 - - - -
25/05:00am 18.4 CALM 0 0 1010.3 - 0.0 - - 10 - - - -
25/04:30am 18.6 CALM 0 0 1010.3 - 0.0 - - 10 - - - -
25/04:00am 18.8 CALM 0 0 1010.3 - 0.0 - - 10 - - - -
25/03:30am 19.0 CALM 0 3 1010.2 - 0.0 - - 10 - - - -
25/03:00am 19.4 CALM 0 0 1009.8 - 0.0 - - 10 - - - -
25/02:30am 19.5 CALM 0 0 1010.4 - 0.0 - - 10 - - - -
25/02:00am 19.9 CALM 0 0 1010.4 - 0.0 - - 10 - - - -
25/01:30am 20.2 CALM 0 0 1010.5 - 0.0 - - 10 - - - -
25/01:00am 20.4 CALM 0 0 1010.6 - 0.0 - - 10 - - - -
25/12:30am 20.4 S 4 4 1010.8 - 0.0 - - 10 - - - -
25/12:00am 20.9 S 3 5 1010.7 - 0.0 - - 10 - - - -
 
Date/Time
CST
Temp

°C
Wind Pressure Rain
since 9am
mm
Weather Cloud Vis
km
Sea
Height
m
Swell
Dir
 
Speed
knots
Gust
knots
hPa Trend Height
m
Period
s
Dir
24/11:30pm 22.4 S 5 6 1011.3 - 0.0 - - 10 - - - -
24/11:00pm 23.6 S 6 8 1011.3 - 0.0 - - 10 - - - -
24/10:30pm 22.8 S 6 7 1011.4 - 0.0 - - 10 - - - -
24/10:00pm 21.6 S 4 6 1011.5 - 0.0 - - 10 - - - -
24/09:30pm 21.5 SSE 4 4 1011.4 - 0.0 - - 10 - - - -
24/09:00pm 22.4 SSE 4 5 1011.2 R 0.0 Fine Mostly cloudy 28 - - - -
24/08:30pm 22.5 SSE 3 4 1011.6 - 0.0 - - 10 - - - -
24/08:00pm 23.2 E 4 5 1011.2 - 0.0 - - 10 - - - -
24/07:30pm 23.6 SSE 4 5 1010.8 - 0.0 - - 10 - - - -
24/07:00pm 25.1 S 5 6 1010.5 - 0.0 - - 10 - - - -
24/06:30pm 25.6 SSE 4 5 1010.1 - 0.0 - - 10 - - - -
24/06:00pm 27.1 SSE 6 8 1009.2 F 0.0 Fine Mostly cloudy 26 - - - -
24/05:30pm 28.2 SSE 7 9 1009.4 - 0.0 - - 10 - - - -
24/05:00pm 29.1 SE 10 14 1009.3 - 0.0 - - 10 - - - -
24/04:30pm 29.2 SSE 10 14 1009.2 - 0.0 - - 10 - - - -
24/04:00pm 29.6 SE 11 14 1009.3 - 0.0 - - 10 - - - -
24/03:30pm 30.0 SSE 10 15 1009.2 - 0.0 - - 10 - - - -
24/03:00pm 30.2 SE 12 15 1009.0 R 0.0 Fine Mostly cloudy 26 - - - -
24/02:30pm 30.3 SE 12 17 1009.5 - 0.0 - - 10 - - - -
24/02:00pm 30.1 SE 12 18 1009.6 - 0.0 - - 10 - - - -
24/01:30pm 30.1 SE 12 19 1009.9 - 0.0 - - 10 - - - -
24/01:00pm 30.5 SE 13 17 1010.1 - 0.0 - - 10 - - - -
24/12:30pm 30.5 SSE 11 15 1010.6 - 0.0 - - 10 - - - -
24/12:00pm 30.2 ESE 11 15 1010.4 F 0.0 Fine Partly cloudy 25 - - - -
24/11:30am 30.3 SE 9 14 1011.1 - 0.0 - - 10 - - - -
24/11:00am 30.1 SE 10 15 1011.5 - 0.0 - - 10 - - - -
24/10:30am 29.7 SE 11 14 1011.8 - 0.0 - - 10 - - - -
24/10:00am 29.8 ESE 11 13 1011.8 - 0.0 - - 10 - - - -
24/09:30am 29.2 SE 9 12 1011.8 - 0.0 - - 10 - - - -
24/09:00am 28.6 SSE 10 11 1011.4 F 0.0 Fine Mostly clear 22 - - - -
24/08:30am 27.8 ESE 5 7 1011.7 - 0.0 - - 10 - - - -
24/08:00am 26.0 SSE 2 3 1011.6 - 0.0 - - 10 - - - -
24/07:30am 23.5 CALM 0 0 1011.3 - 0.0 - - 10 - - - -
24/07:00am 21.1 CALM 0 0 1011.0 - 0.0 - - 10 - - - -
24/06:30am 20.7 CALM 0 0 1010.8 - 0.0 - Mostly clear 10 - - - -
24/06:00am 20.9 CALM 0 0 1010.2 S 0.0 Fine Partly cloudy 23 - - - -
24/05:30am 21.0 CALM 0 0 1010.4 - 0.0 - - 10 - - - -
24/05:00am 21.3 CALM 0 0 1010.2 - 0.0 - - 10 - - - -
24/04:30am 21.5 CALM 0 0 1010.2 - 0.0 - - 10 - - - -
24/04:00am 21.7 CALM 0 0 1010.3 - 0.0 - - 10 - - - -
24/03:30am 21.9 CALM 0 0 1010.2 - 0.0 - - 10 - - - -
24/03:00am 22.0 CALM 0 0 1009.8 - 0.0 - - 10 - - - -
24/02:30am 22.4 CALM 0 0 1010.4 - 0.0 - - 10 - - - -
24/02:00am 22.6 CALM 0 2 1010.5 - 0.0 - - 10 - - - -
24/01:30am 23.3 S 3 4 1010.6 - 0.0 - - 10 - - - -
24/01:00am 24.4 S 5 6 1010.6 - 0.0 - - 10 - - - -
24/12:30am 23.6 SSE 4 5 1010.7 - 0.0 - - 10 - - - -
24/12:00am 23.8 SSE 3 4 1010.6 - 0.0 - - 10 - - - -
 
Date/Time
CST
Temp

°C
Wind Pressure Rain
since 9am
mm
Weather Cloud Vis
km
Sea
Height
m
Swell
Dir
 
Speed
knots
Gust
knots
hPa Trend Height
m
Period
s
Dir
23/11:30pm 24.4 SSE 5 6 1011.0 - 0.0 - - 10 - - - -
23/11:00pm 24.6 S 4 5 1011.0 - 0.0 - Partly cloudy 10 - - - -
23/10:30pm 24.8 SSE 6 6 1011.1 - 0.0 - - 10 - - - -
23/10:00pm 24.4 SSE 5 6 1011.1 - 0.0 - Mostly clear 10 - - - -
23/09:30pm 24.9 S 5 6 1011.2 - 0.0 - Mostly clear 10 - - - -
23/09:00pm 25.3 S 5 6 1010.6 F 0.0 Fine Mostly clear 27 - - - -
23/08:30pm 25.0 SSE 4 5 1010.8 - 0.0 - Mostly clear 10 - - - -
23/08:00pm 25.3 SSE 4 5 1010.3 - 0.0 - Mostly clear 10 - - - -
23/07:30pm 25.6 SSE 5 5 1010.0 - 0.0 - Mostly clear 10 - - - -
23/07:00pm 25.9 SSE 5 6 1009.7 - 0.0 - Mostly clear 10 - - - -
23/06:30pm 26.6 SSE 5 7 1009.5 - 0.0 - Mostly clear 10 - - - -
23/06:00pm 27.5 SSE 5 7 1009.0 F 0.0 Fine Partly cloudy 25 - - - -
23/05:30pm 27.9 SSE 7 11 1009.2 - 0.0 - Mostly clear 10 - - - -
23/05:00pm 28.5 SE 11 14 1009.0 - 0.0 - Mostly clear 10 - - - -
23/04:30pm 29.2 SE 10 15 1008.8 - 0.0 - Partly cloudy 10 - - - -
23/04:00pm 30.0 SSE 9 13 1008.8 - 0.0 - Mostly clear 10 - - - -
23/03:30pm 30.4 SSE 9 13 1008.8 - 0.0 - Mostly clear 10 - - - -
23/03:00pm 30.4 SSE 9 13 1008.5 R 0.0 Fine Partly cloudy 25 - - - -

Other Formats:

Comma delimited format used in spreadsheet applications
http://www.bom.gov.au/fwo/IDD60701/IDD60701.94150.axf

JavaScript Object Notation format (JSON) in row-major order
http://www.bom.gov.au/fwo/IDD60701/IDD60701.94150.json